Time;durP1;ratioP1;P1;durP2;ratioP2;P2;SDS_P1;SDS_P2;PMS_P1;PMS_P2;Temp;Humidity;BMP_temperature;BMP_pressure;BME280_temperature;BME280_humidity;BME280_pressure;Samples;Min_cycle;Max_cycle;Signal;HPM_P1;HPM_P2
2022/10/30 00:00:19;;;;;;;51.47;27.20;;;;;;;;;;5078802;28;20032;-76
2022/10/30 00:02:49;;;;;;;54.47;28.73;;;;;;;;;;5075389;28;20382;-77
2022/10/30 00:05:15;;;;;;;67.75;29.92;;;;;;;;;;5076253;28;20032;-76
2022/10/30 00:07:41;;;;;;;66.70;32.50;;;;;;;;;;5082581;28;20032;-75
2022/10/30 00:10:07;;;;;;;81.93;34.88;;;;;;;;;;5092965;28;20078;-74
2022/10/30 00:12:33;;;;;;;69.07;34.05;;;;;;;;;;5089769;28;20029;-76
2022/10/30 00:14:59;;;;;;;79.10;34.70;;;;;;;;;;5083567;28;20038;-75
2022/10/30 00:17:25;;;;;;;70.28;34.30;;;;;;;;;;5087837;28;20032;-75
2022/10/30 00:19:51;;;;;;;69.72;34.75;;;;;;;;;;5085535;28;20024;-74
2022/10/30 00:22:17;;;;;;;64.97;32.92;;;;;;;;;;5087849;28;20021;-74
2022/10/30 00:24:43;;;;;;;64.95;33.40;;;;;;;;;;5086047;28;20104;-76
2022/10/30 00:27:09;;;;;;;58.38;30.65;;;;;;;;;;5086858;28;20488;-75
2022/10/30 00:29:35;;;;;;;64.32;32.13;;;;;;;;;;5087980;28;20154;-75
2022/10/30 00:32:01;;;;;;;69.13;32.45;;;;;;;;;;5097411;28;20028;-76
2022/10/30 00:34:27;;;;;;;73.53;32.50;;;;;;;;;;5098059;28;20027;-75
2022/10/30 00:36:53;;;;;;;62.95;31.17;;;;;;;;;;5095859;28;20025;-77
2022/10/30 00:39:19;;;;;;;57.55;30.63;;;;;;;;;;5093834;28;20501;-75
2022/10/30 00:41:45;;;;;;;64.55;31.80;;;;;;;;;;5097140;28;20033;-76
2022/10/30 00:44:30;;;;;;;74.28;32.03;;;;;;;;;;5097516;28;20040;-76
2022/10/30 00:46:57;;;;;;;60.05;28.85;;;;;;;;;;5092159;28;20131;-75
2022/10/30 00:49:23;;;;;;;56.15;28.23;;;;;;;;;;5078445;28;20112;-76
2022/10/30 00:51:51;;;;;;;60.83;28.90;;;;;;;;;;5079871;28;20032;-75
2022/10/30 00:54:18;;;;;;;56.35;27.92;;;;;;;;;;5081992;28;20060;-75
2022/10/30 00:56:45;;;;;;;54.75;29.33;;;;;;;;;;5079799;28;20032;-74
2022/10/30 00:59:15;;;;;;;64.60;30.55;;;;;;;;;;5080911;28;20028;-75
2022/10/30 01:01:42;;;;;;;54.25;30.70;;;;;;;;;;5080529;28;20036;-75
2022/10/30 01:04:08;;;;;;;59.80;31.42;;;;;;;;;;5075700;28;20473;-76
2022/10/30 01:06:36;;;;;;;60.63;31.92;;;;;;;;;;5072937;28;20021;-76
2022/10/30 01:09:03;;;;;;;60.00;30.33;;;;;;;;;;5073397;28;20112;-74
2022/10/30 01:11:30;;;;;;;61.53;31.15;;;;;;;;;;5072449;28;20560;-76
2022/10/30 01:13:58;;;;;;;64.38;31.33;;;;;;;;;;5074308;28;20385;-76
2022/10/30 01:16:49;;;;;;;63.22;33.72;;;;;;;;;;5072990;28;20032;-76
2022/10/30 01:19:15;;;;;;;67.85;32.67;;;;;;;;;;5069346;28;20093;-75
2022/10/30 01:21:50;;;;;;;80.45;34.40;;;;;;;;;;5073057;28;20385;-75
2022/10/30 01:24:39;;;;;;;68.88;37.33;;;;;;;;;;5072635;28;20021;-76
2022/10/30 01:27:24;;;;;;;69.72;35.92;;;;;;;;;;5072633;28;20077;-75
2022/10/30 01:30:16;;;;;;;70.97;38.13;;;;;;;;;;5072670;28;20396;-75
2022/10/30 01:32:42;;;;;;;82.15;39.42;;;;;;;;;;5049298;28;20079;-73
2022/10/30 01:35:14;;;;;;;75.20;39.92;;;;;;;;;;5071476;28;20420;-74
2022/10/30 01:37:47;;;;;;;82.82;41.83;;;;;;;;;;5072435;28;20021;-75
2022/10/30 01:40:14;;;;;;;77.32;41.03;;;;;;;;;;5072606;28;20149;-75
2022/10/30 01:42:44;;;;;;;74.80;41.63;;;;;;;;;;5072307;28;20029;-75
2022/10/30 01:45:14;;;;;;;94.53;46.83;;;;;;;;;;5072338;28;20024;-75
2022/10/30 01:47:40;;;;;;;92.13;45.05;;;;;;;;;;5072047;28;20044;-75
2022/10/30 01:50:12;;;;;;;82.38;45.05;;;;;;;;;;5072365;28;20494;-75
2022/10/30 01:52:51;;;;;;;92.93;46.97;;;;;;;;;;5072233;28;20039;-75
2022/10/30 01:55:29;;;;;;;90.75;46.35;;;;;;;;;;5072196;28;20025;-74
2022/10/30 01:57:59;;;;;;;83.93;43.70;;;;;;;;;;5072361;28;20036;-74
2022/10/30 02:00:26;;;;;;;88.90;42.40;;;;;;;;;;5072293;28;20036;-75
2022/10/30 02:02:53;;;;;;;81.13;43.80;;;;;;;;;;5072021;28;20089;-75
2022/10/30 02:05:22;;;;;;;84.65;43.85;;;;;;;;;;5072031;28;20110;-75
2022/10/30 02:07:48;;;;;;;84.00;44.85;;;;;;;;;;5070616;28;20020;-74
2022/10/30 02:10:14;;;;;;;79.22;42.38;;;;;;;;;;5071933;28;20484;-74
2022/10/30 02:12:40;;;;;;;77.97;42.72;;;;;;;;;;5071932;28;20025;-75
2022/10/30 02:15:06;;;;;;;75.88;39.80;;;;;;;;;;5072158;28;20020;-74
2022/10/30 02:17:33;;;;;;;77.38;39.63;;;;;;;;;;5071400;28;20060;-75
2022/10/30 02:19:59;;;;;;;71.65;39.05;;;;;;;;;;5072043;28;20021;-73
2022/10/30 02:22:25;;;;;;;79.65;39.55;;;;;;;;;;5072201;28;20024;-75
2022/10/30 02:24:51;;;;;;;77.65;38.72;;;;;;;;;;5072088;28;20389;-74
2022/10/30 02:27:17;;;;;;;80.57;39.13;;;;;;;;;;5070653;28;20119;-76
2022/10/30 02:29:43;;;;;;;76.55;37.60;;;;;;;;;;5072481;28;20059;-76
2022/10/30 02:32:09;;;;;;;66.25;34.20;;;;;;;;;;5072312;28;20389;-73
2022/10/30 02:34:35;;;;;;;77.80;36.08;;;;;;;;;;5072712;28;20423;-74
2022/10/30 02:37:01;;;;;;;63.85;35.38;;;;;;;;;;5079955;28;20044;-74
2022/10/30 02:39:27;;;;;;;60.97;33.42;;;;;;;;;;5081064;28;20032;-74
2022/10/30 02:41:53;;;;;;;66.72;32.85;;;;;;;;;;5081078;28;20028;-75
2022/10/30 02:44:19;;;;;;;66.40;30.95;;;;;;;;;;5082851;28;20056;-74
2022/10/30 02:46:45;;;;;;;66.72;32.78;;;;;;;;;;5071240;28;20063;-75
2022/10/30 02:49:11;;;;;;;64.63;31.33;;;;;;;;;;5072008;28;20491;-75
2022/10/30 02:51:37;;;;;;;59.47;28.58;;;;;;;;;;5071881;28;20473;-74
2022/10/30 02:54:03;;;;;;;57.70;29.65;;;;;;;;;;5071724;28;20473;-74
2022/10/30 02:56:29;;;;;;;56.15;28.05;;;;;;;;;;5071473;28;20107;-75
2022/10/30 02:58:55;;;;;;;66.93;29.85;;;;;;;;;;5071634;28;20028;-73
2022/10/30 03:01:21;;;;;;;61.72;29.85;;;;;;;;;;5071479;28;20032;-74
2022/10/30 03:03:47;;;;;;;58.33;30.38;;;;;;;;;;5070161;28;20500;-74
2022/10/30 03:06:15;;;;;;;57.65;29.63;;;;;;;;;;5071380;28;20522;-75
2022/10/30 03:08:41;;;;;;;54.92;28.63;;;;;;;;;;5071911;28;20516;-76
2022/10/30 03:11:08;;;;;;;61.63;28.73;;;;;;;;;;5077745;28;20099;-75
2022/10/30 03:13:35;;;;;;;55.60;27.23;;;;;;;;;;5079825;28;20103;-74
2022/10/30 03:16:05;;;;;;;60.28;28.98;;;;;;;;;;5077381;28;20078;-75
2022/10/30 03:18:31;;;;;;;55.50;27.65;;;;;;;;;;5075523;28;20038;-75
2022/10/30 03:20:58;;;;;;;52.53;27.92;;;;;;;;;;5075463;28;20107;-75
2022/10/30 03:23:23;;;;;;;59.03;27.42;;;;;;;;;;5075667;28;20078;-75
2022/10/30 03:25:54;;;;;;;58.85;30.17;;;;;;;;;;5075038;28;20028;-75
2022/10/30 03:28:20;;;;;;;55.83;27.58;;;;;;;;;;5073864;28;20108;-76
2022/10/30 03:30:46;;;;;;;49.65;25.45;;;;;;;;;;5075428;28;20024;-76
2022/10/30 03:33:12;;;;;;;49.83;24.40;;;;;;;;;;5075020;28;20036;-75
2022/10/30 03:35:38;;;;;;;53.97;24.92;;;;;;;;;;5074861;28;20417;-74
2022/10/30 03:38:04;;;;;;;50.15;25.00;;;;;;;;;;5074950;28;20028;-74
2022/10/30 03:40:30;;;;;;;52.13;25.10;;;;;;;;;;5074954;28;20031;-74
2022/10/30 03:42:56;;;;;;;52.22;25.92;;;;;;;;;;5074881;28;20032;-75
2022/10/30 03:45:22;;;;;;;48.88;24.85;;;;;;;;;;5074906;28;20381;-74
2022/10/30 03:47:48;;;;;;;52.00;24.30;;;;;;;;;;5075047;28;20596;-74
2022/10/30 03:50:14;;;;;;;49.25;23.17;;;;;;;;;;5074875;28;20117;-74
2022/10/30 03:52:40;;;;;;;43.33;22.83;;;;;;;;;;5073514;28;20028;-74
2022/10/30 03:55:06;;;;;;;43.88;23.20;;;;;;;;;;5074822;28;20142;-74
2022/10/30 03:57:35;;;;;;;47.75;22.90;;;;;;;;;;5074530;28;20074;-74
2022/10/30 04:00:01;;;;;;;47.47;22.77;;;;;;;;;;5074891;28;20047;-74
2022/10/30 04:02:27;;;;;;;48.58;22.45;;;;;;;;;;5074681;28;20107;-74
2022/10/30 04:04:53;;;;;;;49.28;23.45;;;;;;;;;;5074528;28;20493;-73
2022/10/30 04:07:19;;;;;;;47.60;21.75;;;;;;;;;;5074223;28;20020;-74
2022/10/30 04:09:45;;;;;;;43.45;21.13;;;;;;;;;;5075040;28;20359;-75
2022/10/30 04:12:11;;;;;;;45.15;20.67;;;;;;;;;;5080377;28;20463;-74
2022/10/30 04:14:37;;;;;;;39.45;21.17;;;;;;;;;;5074614;28;20025;-73
2022/10/30 04:17:05;;;;;;;50.17;21.83;;;;;;;;;;5075383;28;20047;-76
2022/10/30 04:19:31;;;;;;;41.58;21.42;;;;;;;;;;5076423;28;20084;-74
2022/10/30 04:21:57;;;;;;;36.97;19.90;;;;;;;;;;5077070;28;20488;-75
2022/10/30 04:24:22;;;;;;;46.45;20.05;;;;;;;;;;5075076;28;20029;-75
2022/10/30 04:26:49;;;;;;;35.85;19.77;;;;;;;;;;5073141;28;20389;-75
2022/10/30 04:29:15;;;;;;;41.42;19.88;;;;;;;;;;5076555;28;20024;-75
2022/10/30 04:31:40;;;;;;;46.00;18.90;;;;;;;;;;5072735;28;20024;-74
2022/10/30 04:34:06;;;;;;;35.72;19.00;;;;;;;;;;5072915;28;20030;-75
2022/10/30 04:36:32;;;;;;;41.03;18.70;;;;;;;;;;5073764;28;20028;-75
2022/10/30 04:38:59;;;;;;;37.83;17.92;;;;;;;;;;5081762;28;20025;-75
2022/10/30 04:41:25;;;;;;;37.45;19.10;;;;;;;;;;5077256;28;20040;-74
2022/10/30 04:43:51;;;;;;;31.92;17.08;;;;;;;;;;5073842;28;20489;-75
2022/10/30 04:46:17;;;;;;;34.58;17.02;;;;;;;;;;5073458;28;20085;-74
2022/10/30 04:48:43;;;;;;;45.83;18.05;;;;;;;;;;5072745;28;20024;-75
2022/10/30 04:51:10;;;;;;;44.63;18.17;;;;;;;;;;5091591;28;20085;-75
2022/10/30 04:53:36;;;;;;;37.97;17.48;;;;;;;;;;5095451;28;20020;-74
2022/10/30 04:56:02;;;;;;;42.28;17.90;;;;;;;;;;5080793;28;20032;-75
2022/10/30 04:58:28;;;;;;;39.88;16.92;;;;;;;;;;5073525;28;20021;-74
2022/10/30 05:00:54;;;;;;;34.47;16.30;;;;;;;;;;5073471;28;20530;-75
2022/10/30 05:03:22;;;;;;;36.25;17.60;;;;;;;;;;5073393;28;20517;-76
2022/10/30 05:05:55;;;;;;;34.75;17.63;;;;;;;;;;5073363;28;20024;-75
2022/10/30 05:08:20;;;;;;;43.42;17.27;;;;;;;;;;5073406;28;20056;-74
2022/10/30 05:10:46;;;;;;;35.80;17.70;;;;;;;;;;5073422;28;20055;-74
2022/10/30 05:13:12;;;;;;;40.33;17.38;;;;;;;;;;5073175;28;20055;-75
2022/10/30 05:15:38;;;;;;;35.08;16.35;;;;;;;;;;5073030;28;20378;-74
2022/10/30 05:18:04;;;;;;;32.05;15.65;;;;;;;;;;5072565;28;20032;-75
2022/10/30 05:20:30;;;;;;;29.65;15.98;;;;;;;;;;5072320;28;20035;-74
2022/10/30 05:22:57;;;;;;;36.38;16.35;;;;;;;;;;5072272;28;20064;-75
2022/10/30 05:25:23;;;;;;;30.65;15.27;;;;;;;;;;5072001;28;20142;-75
2022/10/30 05:27:49;;;;;;;34.45;15.93;;;;;;;;;;5072250;28;20394;-75
2022/10/30 05:30:16;;;;;;;31.73;14.55;;;;;;;;;;5072265;28;20021;-74
2022/10/30 05:32:41;;;;;;;35.38;15.98;;;;;;;;;;5072114;28;20032;-74
2022/10/30 05:35:08;;;;;;;31.50;14.75;;;;;;;;;;5071880;28;20070;-75
2022/10/30 05:37:34;;;;;;;31.60;16.08;;;;;;;;;;5072617;28;20493;-75
2022/10/30 05:39:59;;;;;;;36.90;16.02;;;;;;;;;;5073200;28;20028;-74
2022/10/30 05:42:25;;;;;;;36.25;15.88;;;;;;;;;;5079112;28;20021;-76
2022/10/30 05:44:51;;;;;;;30.80;14.18;;;;;;;;;;5079814;28;20035;-75
2022/10/30 05:47:17;;;;;;;26.05;14.55;;;;;;;;;;5080953;28;20038;-74
2022/10/30 05:49:43;;;;;;;29.10;14.18;;;;;;;;;;5085680;28;20036;-73
2022/10/30 05:52:09;;;;;;;30.92;15.10;;;;;;;;;;5088364;28;20046;-75
2022/10/30 05:54:35;;;;;;;30.83;14.45;;;;;;;;;;5088871;28;20039;-75
2022/10/30 05:57:01;;;;;;;31.25;14.88;;;;;;;;;;5088483;28;20093;-74
2022/10/30 05:59:27;;;;;;;34.17;15.55;;;;;;;;;;5089714;28;20024;-74
2022/10/30 06:01:53;;;;;;;35.20;15.00;;;;;;;;;;5085795;28;20028;-75
2022/10/30 06:04:19;;;;;;;27.63;13.93;;;;;;;;;;5070443;28;20485;-75
2022/10/30 06:06:45;;;;;;;32.85;14.98;;;;;;;;;;5071896;28;20091;-74
2022/10/30 06:09:11;;;;;;;33.00;14.40;;;;;;;;;;5071994;28;20485;-75
2022/10/30 06:11:37;;;;;;;28.63;14.95;;;;;;;;;;5071665;28;20095;-74
2022/10/30 06:14:03;;;;;;;29.73;13.77;;;;;;;;;;5071933;28;20028;-75
2022/10/30 06:16:29;;;;;;;29.00;14.07;;;;;;;;;;5033313;28;1056913;-75
2022/10/30 06:18:55;;;;;;;39.28;13.93;;;;;;;;;;5074234;28;20032;-75
2022/10/30 06:21:20;;;;;;;33.90;14.70;;;;;;;;;;5074623;28;20032;-74
2022/10/30 06:23:48;;;;;;;46.28;21.90;;;;;;;;;;5086659;28;20056;-73
2022/10/30 06:26:14;;;;;;;33.75;16.42;;;;;;;;;;5087855;28;20092;-74
2022/10/30 06:28:40;;;;;;;34.78;14.57;;;;;;;;;;5085233;28;20029;-74
2022/10/30 06:31:06;;;;;;;25.70;13.75;;;;;;;;;;5086019;28;20603;-75
2022/10/30 06:33:32;;;;;;;36.67;14.73;;;;;;;;;;5085242;28;20032;-74
2022/10/30 06:35:58;;;;;;;33.17;14.60;;;;;;;;;;5084147;28;20070;-74
2022/10/30 06:38:24;;;;;;;28.00;13.65;;;;;;;;;;5084023;28;20504;-74
2022/10/30 06:40:50;;;;;;;31.98;13.85;;;;;;;;;;5085245;28;20036;-74
2022/10/30 06:43:16;;;;;;;30.52;14.48;;;;;;;;;;5092646;28;20050;-74
2022/10/30 06:45:42;;;;;;;33.28;13.50;;;;;;;;;;5095940;28;20028;-74
2022/10/30 06:48:08;;;;;;;30.08;14.10;;;;;;;;;;5098474;28;20040;-73
2022/10/30 06:50:34;;;;;;;34.40;13.75;;;;;;;;;;5097623;28;20028;-75
2022/10/30 06:53:00;;;;;;;25.17;13.18;;;;;;;;;;5097591;28;20067;-75
2022/10/30 06:55:26;;;;;;;33.53;14.35;;;;;;;;;;5100243;28;20054;-76
2022/10/30 06:57:55;;;;;;;26.17;13.75;;;;;;;;;;5100694;28;20090;-76
2022/10/30 07:00:22;;;;;;;29.50;14.57;;;;;;;;;;5099882;28;20055;-76
2022/10/30 07:02:54;;;;;;;37.50;15.25;;;;;;;;;;5099402;28;20021;-76
2022/10/30 07:05:20;;;;;;;33.47;14.38;;;;;;;;;;5099378;28;20071;-77
2022/10/30 07:07:46;;;;;;;37.22;16.77;;;;;;;;;;5099311;28;20012;-76
2022/10/30 07:10:12;;;;;;;34.40;15.60;;;;;;;;;;5101089;28;20032;-75
2022/10/30 07:12:38;;;;;;;37.33;16.17;;;;;;;;;;5099765;28;20040;-75
2022/10/30 07:15:04;;;;;;;32.70;15.43;;;;;;;;;;5100421;28;20047;-75
2022/10/30 07:17:30;;;;;;;33.50;14.32;;;;;;;;;;5106276;22;20075;-77
2022/10/30 07:19:56;;;;;;;36.45;15.32;;;;;;;;;;5041003;28;20021;-76
2022/10/30 07:22:22;;;;;;;31.13;13.95;;;;;;;;;;5057081;28;20071;-76
2022/10/30 07:24:48;;;;;;;26.63;13.75;;;;;;;;;;5058496;28;20021;-76
2022/10/30 07:27:14;;;;;;;27.65;14.27;;;;;;;;;;5065117;28;20474;-76
2022/10/30 07:29:40;;;;;;;27.80;13.10;;;;;;;;;;5062012;28;20021;-76
2022/10/30 07:32:06;;;;;;;30.92;12.98;;;;;;;;;;5060328;28;20025;-75
2022/10/30 07:34:33;;;;;;;29.77;14.02;;;;;;;;;;5058681;28;20029;-76
2022/10/30 07:36:59;;;;;;;28.10;12.80;;;;;;;;;;5046206;28;20067;-76
2022/10/30 07:39:25;;;;;;;35.85;13.52;;;;;;;;;;5059584;28;20032;-77
2022/10/30 07:41:50;;;;;;;34.15;14.00;;;;;;;;;;5057985;28;20032;-76
2022/10/30 07:44:17;;;;;;;30.83;13.63;;;;;;;;;;5060759;28;20039;-75
2022/10/30 07:46:43;;;;;;;26.52;12.30;;;;;;;;;;5060956;28;20075;-77
2022/10/30 07:49:09;;;;;;;31.50;13.20;;;;;;;;;;5057371;28;20289;-76
2022/10/30 07:51:34;;;;;;;25.92;12.52;;;;;;;;;;5055681;28;20025;-76
2022/10/30 07:54:00;;;;;;;33.28;12.45;;;;;;;;;;5055393;28;20029;-78
2022/10/30 07:56:26;;;;;;;28.58;11.55;;;;;;;;;;5059662;28;20024;-76
2022/10/30 07:58:52;;;;;;;30.02;12.05;;;;;;;;;;5077513;28;20032;-76
2022/10/30 08:01:18;;;;;;;28.55;11.15;;;;;;;;;;5063473;28;20457;-78
2022/10/30 08:03:44;;;;;;;25.70;10.43;;;;;;;;;;5056242;28;20037;-77
2022/10/30 08:06:10;;;;;;;25.10;10.52;;;;;;;;;;5039245;28;20068;-77
2022/10/30 08:08:36;;;;;;;29.98;10.65;;;;;;;;;;5057346;28;20040;-77
2022/10/30 08:11:02;;;;;;;32.83;10.52;;;;;;;;;;5056913;28;20025;-77
2022/10/30 08:13:28;;;;;;;32.50;11.25;;;;;;;;;;5056832;28;20029;-77
2022/10/30 08:15:54;;;;;;;29.67;10.63;;;;;;;;;;5040018;28;20060;-79
2022/10/30 08:18:20;;;;;;;30.77;11.55;;;;;;;;;;5046597;28;20059;-76
2022/10/30 08:20:49;;;;;;;33.45;11.18;;;;;;;;;;5070899;28;20462;-76
2022/10/30 08:23:16;;;;;;;25.27;10.95;;;;;;;;;;5068241;28;20025;-76
2022/10/30 08:25:42;;;;;;;27.13;11.02;;;;;;;;;;5073606;28;20021;-75
2022/10/30 08:28:10;;;;;;;28.00;11.63;;;;;;;;;;5079382;28;20044;-76
2022/10/30 08:30:37;;;;;;;35.97;10.50;;;;;;;;;;5062542;28;20083;-79
2022/10/30 08:33:05;;;;;;;25.38;9.70;;;;;;;;;;5057934;28;20091;-77
2022/10/30 08:35:31;;;;;;;34.67;12.82;;;;;;;;;;5042127;28;20036;-77
2022/10/30 08:37:58;;;;;;;28.70;9.85;;;;;;;;;;5060168;28;20013;-77
2022/10/30 08:40:24;;;;;;;24.00;9.50;;;;;;;;;;5042454;28;20036;-76
2022/10/30 08:42:51;;;;;;;37.25;10.63;;;;;;;;;;5059939;28;20025;-76
2022/10/30 08:45:17;;;;;;;26.05;9.30;;;;;;;;;;5055357;28;20449;-76
2022/10/30 08:47:43;;;;;;;32.42;9.88;;;;;;;;;;5055141;28;20057;-76
2022/10/30 08:50:09;;;;;;;30.30;9.48;;;;;;;;;;5056701;28;20036;-77
2022/10/30 08:52:35;;;;;;;23.45;9.50;;;;;;;;;;5057006;28;20028;-76
2022/10/30 08:55:01;;;;;;;26.05;9.35;;;;;;;;;;5065054;28;20050;-77
2022/10/30 08:57:27;;;;;;;22.58;8.93;;;;;;;;;;5072557;28;20028;-76
2022/10/30 08:59:53;;;;;;;21.88;8.65;;;;;;;;;;5074333;28;20033;-76
2022/10/30 09:02:19;;;;;;;31.20;8.70;;;;;;;;;;5074839;28;20409;-76
2022/10/30 09:04:45;;;;;;;33.88;8.80;;;;;;;;;;5074059;28;20082;-76
2022/10/30 09:07:11;;;;;;;24.00;8.52;;;;;;;;;;5071407;28;20021;-77
2022/10/30 09:09:37;;;;;;;23.52;8.80;;;;;;;;;;5058206;28;20096;-75
2022/10/30 09:12:03;;;;;;;22.92;8.52;;;;;;;;;;5059251;28;20063;-77
2022/10/30 09:14:29;;;;;;;24.40;9.20;;;;;;;;;;5038499;28;20025;-75
2022/10/30 09:16:55;;;;;;;28.13;8.57;;;;;;;;;;5055792;28;20029;-75
2022/10/30 09:19:23;;;;;;;23.35;8.73;;;;;;;;;;5041146;28;20101;-77
2022/10/30 09:21:49;;;;;;;27.80;8.93;;;;;;;;;;5056236;28;20052;-76
2022/10/30 09:24:14;;;;;;;27.35;8.95;;;;;;;;;;5057206;28;20036;-77
2022/10/30 09:26:40;;;;;;;24.85;8.68;;;;;;;;;;5058081;28;20029;-76
2022/10/30 09:29:06;;;;;;;28.20;7.72;;;;;;;;;;5038759;28;20017;-77
2022/10/30 09:31:32;;;;;;;24.92;9.00;;;;;;;;;;5055376;28;20104;-76
2022/10/30 09:33:58;;;;;;;31.85;9.18;;;;;;;;;;5056457;28;20131;-76
2022/10/30 09:36:24;;;;;;;26.75;9.30;;;;;;;;;;5057317;28;20025;-76
2022/10/30 09:38:50;;;;;;;33.50;9.15;;;;;;;;;;5057855;28;20116;-77
2022/10/30 09:41:28;;;;;;;28.80;9.30;;;;;;;;;;5055408;28;20025;-76
2022/10/30 09:43:54;;;;;;;20.65;7.72;;;;;;;;;;5036437;28;20021;-77
2022/10/30 09:46:20;;;;;;;27.13;9.50;;;;;;;;;;5054181;28;20075;-77
2022/10/30 09:49:08;;;;;;;27.38;8.75;;;;;;;;;;5053811;28;20036;-76
2022/10/30 09:51:46;;;;;;;24.95;9.02;;;;;;;;;;5055518;28;20024;-77
2022/10/30 09:54:28;;;;;;;43.38;10.30;;;;;;;;;;5055082;28;20474;-78
2022/10/30 09:57:15;;;;;;;30.58;10.05;;;;;;;;;;5055100;28;20474;-76
2022/10/30 09:59:44;;;;;;;32.72;10.65;;;;;;;;;;5037079;28;20032;-78
2022/10/30 10:02:30;;;;;;;39.15;11.57;;;;;;;;;;5054571;28;20062;-77
2022/10/30 10:04:58;;;;;;;35.90;10.85;;;;;;;;;;5037310;28;20116;-77
2022/10/30 10:07:29;;;;;;;39.20;12.02;;;;;;;;;;5054615;28;20021;-76
2022/10/30 10:09:59;;;;;;;25.98;10.23;;;;;;;;;;5055065;28;20203;-77
2022/10/30 10:12:31;;;;;;;35.40;10.57;;;;;;;;;;5054006;28;20021;-77
2022/10/30 10:14:57;;;;;;;30.13;11.20;;;;;;;;;;5054990;28;20112;-76
2022/10/30 10:17:44;;;;;;;40.08;11.45;;;;;;;;;;5041409;28;20037;-76
2022/10/30 10:20:19;;;;;;;25.70;10.20;;;;;;;;;;5040838;28;20029;-76
2022/10/30 10:22:49;;;;;;;37.00;12.23;;;;;;;;;;5041324;28;20029;-77
2022/10/30 10:25:16;;;;;;;33.85;11.50;;;;;;;;;;5055266;28;20116;-77
2022/10/30 10:28:00;;;;;;;28.35;10.20;;;;;;;;;;5054436;28;20025;-78
2022/10/30 10:30:31;;;;;;;35.15;10.75;;;;;;;;;;5059230;28;20025;-77
2022/10/30 10:32:57;;;;;;;33.92;11.10;;;;;;;;;;5066549;28;20029;-76
2022/10/30 10:35:23;;;;;;;31.75;10.05;;;;;;;;;;5064973;28;20036;-75
2022/10/30 10:37:57;;;;;;;35.10;9.77;;;;;;;;;;5067307;28;20033;-77
2022/10/30 10:40:42;;;;;;;32.65;9.88;;;;;;;;;;5067666;28;20032;-76
2022/10/30 10:43:22;;;;;;;25.27;9.95;;;;;;;;;;5060854;28;20020;-77
2022/10/30 10:45:48;;;;;;;34.00;9.68;;;;;;;;;;5054819;28;20033;-77
2022/10/30 10:48:26;;;;;;;30.75;10.13;;;;;;;;;;5055289;28;20033;-77
2022/10/30 10:51:02;;;;;;;37.53;9.95;;;;;;;;;;5056149;28;20028;-77
2022/10/30 10:53:37;;;;;;;29.02;9.13;;;;;;;;;;5037802;28;20087;-77
2022/10/30 10:56:03;;;;;;;31.50;9.32;;;;;;;;;;5056073;28;20037;-78
2022/10/30 10:58:38;;;;;;;36.03;10.73;;;;;;;;;;5061425;28;20033;-77
2022/10/30 11:01:05;;;;;;;35.17;9.27;;;;;;;;;;5038749;28;20469;-78
2022/10/30 11:03:52;;;;;;;28.85;9.88;;;;;;;;;;5058062;28;20065;-78
2022/10/30 11:06:23;;;;;;;32.90;9.88;;;;;;;;;;5058016;28;20049;-78
2022/10/30 11:08:49;;;;;;;28.92;9.05;;;;;;;;;;5059244;28;20469;-78
2022/10/30 11:11:15;;;;;;;42.50;10.07;;;;;;;;;;5060648;28;20078;-78
2022/10/30 11:13:44;;;;;;;30.45;9.50;;;;;;;;;;5063632;28;20025;-79
2022/10/30 11:16:29;;;;;;;35.97;10.35;;;;;;;;;;5064665;28;20123;-76
2022/10/30 11:18:57;;;;;;;32.00;8.43;;;;;;;;;;5049132;28;20033;-77
2022/10/30 11:21:24;;;;;;;30.83;9.70;;;;;;;;;;5070950;28;20037;-77
2022/10/30 11:23:50;;;;;;;23.38;8.43;;;;;;;;;;5071430;28;20119;-78
2022/10/30 11:26:16;;;;;;;32.53;9.10;;;;;;;;;;5068323;28;20021;-77
2022/10/30 11:29:08;;;;;;;28.27;7.82;;;;;;;;;;5063924;28;20025;-76
2022/10/30 11:31:44;;;;;;;31.52;8.60;;;;;;;;;;5053612;28;20055;-77
2022/10/30 11:34:31;;;;;;;26.25;8.65;;;;;;;;;;5060210;28;20032;-79
2022/10/30 11:36:57;;;;;;;30.63;9.18;;;;;;;;;;5060871;28;20370;-78
2022/10/30 11:39:30;;;;;;;28.80;8.93;;;;;;;;;;5062825;28;20458;-77
2022/10/30 11:42:05;;;;;;;32.25;8.05;;;;;;;;;;5063551;28;20075;-79
2022/10/30 11:44:36;;;;;;;27.88;9.02;;;;;;;;;;5076451;28;20025;-77
2022/10/30 11:47:02;;;;;;;27.20;8.15;;;;;;;;;;5067340;28;20036;-78
2022/10/30 11:49:32;;;;;;;25.85;8.82;;;;;;;;;;5059617;28;20077;-78
2022/10/30 11:51:59;;;;;;;24.90;8.75;;;;;;;;;;5059404;28;20021;-78
2022/10/30 11:54:26;;;;;;;33.15;8.48;;;;;;;;;;5061601;28;20029;-79
2022/10/30 11:56:53;;;;;;;23.95;8.48;;;;;;;;;;5061828;28;20037;-77
2022/10/30 11:59:21;;;;;;;33.38;8.45;;;;;;;;;;5043987;28;20450;-78
2022/10/30 12:02:00;;;;;;;27.25;7.57;;;;;;;;;;5060366;28;20025;-77
2022/10/30 12:04:27;;;;;;;25.48;8.00;;;;;;;;;;5048919;28;20037;-79
2022/10/30 12:07:06;;;;;;;25.50;7.75;;;;;;;;;;5048155;28;20018;-77
2022/10/30 12:09:40;;;;;;;18.85;7.32;;;;;;;;;;5063006;28;20024;-79
2022/10/30 12:12:21;;;;;;;25.13;7.20;;;;;;;;;;5066343;28;20032;-78
2022/10/30 12:14:47;;;;;;;27.67;7.45;;;;;;;;;;5063526;28;20025;-80
2022/10/30 12:17:14;;;;;;;25.38;7.22;;;;;;;;;;5060556;28;20059;-79
2022/10/30 12:19:45;;;;;;;29.23;8.77;;;;;;;;;;5063986;28;20025;-79
2022/10/30 12:22:23;;;;;;;28.02;8.43;;;;;;;;;;5066275;28;20111;-77
2022/10/30 12:24:49;;;;;;;22.85;7.53;;;;;;;;;;5061065;28;20052;-76
2022/10/30 12:27:16;;;;;;;22.33;7.65;;;;;;;;;;5059927;28;20021;-78
2022/10/30 12:29:54;;;;;;;23.85;7.57;;;;;;;;;;5059784;28;20427;-77
2022/10/30 12:32:21;;;;;;;25.50;7.60;;;;;;;;;;5060692;28;20025;-77
2022/10/30 12:34:55;;;;;;;29.85;8.98;;;;;;;;;;5060699;28;20029;-78
2022/10/30 12:37:21;;;;;;;32.00;7.78;;;;;;;;;;5062099;28;20381;-77
2022/10/30 12:39:47;;;;;;;23.83;7.72;;;;;;;;;;5045350;28;20091;-77
2022/10/30 12:42:19;;;;;;;22.38;7.82;;;;;;;;;;5042257;28;20029;-77
2022/10/30 12:44:48;;;;;;;18.75;7.75;;;;;;;;;;5058103;28;20390;-78
2022/10/30 12:47:13;;;;;;;27.73;8.30;;;;;;;;;;5060312;28;20021;-79
2022/10/30 12:49:46;;;;;;;29.67;6.47;;;;;;;;;;5043775;28;20075;-78
2022/10/30 12:52:12;;;;;;;24.20;7.15;;;;;;;;;;5043981;28;20120;-78
2022/10/30 12:54:42;;;;;;;27.60;8.90;;;;;;;;;;5060327;28;20053;-77
2022/10/30 12:57:14;;;;;;;25.30;7.80;;;;;;;;;;5045389;28;20029;-77
2022/10/30 12:59:45;;;;;;;26.70;7.97;;;;;;;;;;5042112;28;20060;-79
2022/10/30 13:02:21;;;;;;;23.80;8.32;;;;;;;;;;5042350;28;20067;-78
2022/10/30 13:04:49;;;;;;;31.05;8.05;;;;;;;;;;5058578;28;20029;-79
2022/10/30 13:07:19;;;;;;;31.88;8.23;;;;;;;;;;5039116;28;20017;-78
2022/10/30 13:09:57;;;;;;;22.70;8.20;;;;;;;;;;5040604;28;20033;-78
2022/10/30 13:12:28;;;;;;;24.80;7.72;;;;;;;;;;5056980;28;20111;-78
2022/10/30 13:15:00;;;;;;;18.48;7.00;;;;;;;;;;5058479;28;20051;-78
2022/10/30 13:17:27;;;;;;;24.63;7.63;;;;;;;;;;5084101;22;20029;-76
2022/10/30 13:19:53;;;;;;;21.70;7.25;;;;;;;;;;5076287;28;20035;-73
2022/10/30 13:22:19;;;;;;;24.90;8.13;;;;;;;;;;5077245;28;20035;-74
2022/10/30 13:25:03;;;;;;;29.33;8.70;;;;;;;;;;5080098;28;20028;-75
2022/10/30 13:27:39;;;;;;;27.30;8.48;;;;;;;;;;5073536;28;20090;-76
2022/10/30 13:30:10;;;;;;;31.15;8.55;;;;;;;;;;5074088;28;20017;-75
2022/10/30 13:32:36;;;;;;;28.13;7.82;;;;;;;;;;5082996;28;20435;-74
2022/10/30 13:35:20;;;;;;;27.83;8.13;;;;;;;;;;5078710;28;20025;-74
2022/10/30 13:38:03;;;;;;;26.15;8.13;;;;;;;;;;5078542;28;20035;-75
2022/10/30 13:40:35;;;;;;;19.67;7.68;;;;;;;;;;5076931;28;20066;-75
2022/10/30 13:43:21;;;;;;;25.95;8.15;;;;;;;;;;5079903;28;20025;-74
2022/10/30 13:45:50;;;;;;;23.38;8.00;;;;;;;;;;5080671;28;20024;-74
2022/10/30 13:48:22;;;;;;;31.25;9.35;;;;;;;;;;5081837;28;20024;-74
2022/10/30 13:50:54;;;;;;;36.40;9.60;;;;;;;;;;5080580;28;20378;-75
2022/10/30 13:53:24;;;;;;;32.80;9.23;;;;;;;;;;5082766;28;20035;-75
2022/10/30 13:55:50;;;;;;;26.55;8.43;;;;;;;;;;5083683;28;20028;-76
2022/10/30 13:58:20;;;;;;;24.73;8.48;;;;;;;;;;5090306;28;20096;-72
2022/10/30 14:00:59;;;;;;;23.60;8.88;;;;;;;;;;5092825;28;20078;-74
2022/10/30 14:03:31;;;;;;;26.95;9.68;;;;;;;;;;5091150;28;20024;-74
2022/10/30 14:06:03;;;;;;;29.20;9.32;;;;;;;;;;5087464;28;20066;-76
2022/10/30 14:08:35;;;;;;;34.63;8.52;;;;;;;;;;5086523;28;20024;-71
2022/10/30 14:11:04;;;;;;;29.98;9.27;;;;;;;;;;5076783;28;20450;-74
2022/10/30 14:13:44;;;;;;;27.52;9.05;;;;;;;;;;5074109;28;20036;-75
2022/10/30 14:16:29;;;;;;;25.50;8.50;;;;;;;;;;5077299;28;20020;-73
2022/10/30 14:19:03;;;;;;;26.83;7.75;;;;;;;;;;5073616;28;20040;-76
2022/10/30 14:21:51;;;;;;;29.50;8.40;;;;;;;;;;5075661;28;20091;-75
2022/10/30 14:24:18;;;;;;;24.75;7.65;;;;;;;;;;5074557;28;20285;-73
2022/10/30 14:26:46;;;;;;;20.65;7.00;;;;;;;;;;5076235;28;20028;-74
2022/10/30 14:29:31;;;;;;;28.67;7.80;;;;;;;;;;5076510;28;20086;-75